Portada
METAR-TAF:

METAR-TAF

Aeroports :

Gove Peninsula, Austràlia

latitud: 12-16-12S, longitud: 136-49-06E, altitud: 62 m

Observació

L'informe es va fer fa 25 minuts, a les 14:00 UTC
Vent 6 kt del Sud/Sud-Est
Temperatura 25°C
Humitat 74%
Pressió 1011 hPa
Visibilitat 10 km o més

METAR: YPGV 141400Z AUTO 16006KT 9999 // NCD 25/20 Q1011 RF00.0/000.0

Hora: 23:55 (14:25 UTC)

Pronòstic

L'informe es va fer fa 1 hora i 17 minuts, a les 13:08 UTC
Pronòstic vàlid del 14 a les 14 UTC al 15 a les 02 UTC
Vent 6 kt del Sud/Sud-Est
Visibilitat 10 km o més
Escasses núvols a una alçada de 3000 ft
A partir de les 14 a les 2300 UTC
Vent 14 kt del Sud-Est
Visibilitat 10 km o més
Núvols disperses a una alçada de 4000 ft

TAF: YPGV 141308Z 1414/1502 15006KT 9999 FEW030 FM142300 14014KT 9999 SCT040

Observacions i pronòstics meteorològics de més de 4000 aeroports (METAR i TAF).

Les estacions disponibles són els punts grocs i vermells al mapa.

Posi el ratolí al punt desitjat per veure el nom de l'estació.

Feu clic per veure les observacions i els pronòstics meteorològics.

Per canviar el mapa: feu clic els botons verds amb una creu de color negre per apropar; al botó verd amb un guió per allunyar la imatge; o en les fletxes verdes per a mapes adjacents.


METAR-TAF: